createdAt,value
2022-08-04T00:00:18.353Z,20.93
2022-08-04T00:03:15.932Z,20.88
2022-08-04T00:06:09.416Z,20.85
2022-08-04T00:08:44.636Z,20.84
2022-08-04T00:11:15.835Z,20.82
2022-08-04T00:13:58.019Z,20.81
2022-08-04T00:16:35.011Z,20.76
2022-08-04T00:19:10.861Z,20.79
2022-08-04T00:21:39.288Z,20.78
2022-08-04T00:24:12.355Z,20.73
2022-08-04T00:26:40.085Z,20.75
2022-08-04T00:29:06.593Z,20.72
2022-08-04T00:31:56.085Z,20.71
2022-08-04T00:34:21.185Z,20.70
2022-08-04T00:36:47.660Z,20.71
2022-08-04T00:39:16.991Z,20.70
2022-08-04T00:42:27.389Z,20.72
2022-08-04T00:45:30.299Z,20.70
2022-08-04T00:48:55.580Z,20.71
2022-08-04T00:51:33.876Z,20.73
2022-08-04T00:54:11.410Z,20.74
2022-08-04T00:56:43.928Z,20.72
2022-08-04T00:59:42.438Z,20.73
2022-08-04T01:02:29.020Z,20.73
2022-08-04T01:05:12.662Z,20.65
2022-08-04T01:08:11.052Z,20.75
2022-08-04T01:11:02.536Z,20.73
2022-08-04T01:13:42.750Z,20.73
2022-08-04T01:16:13.687Z,20.69
2022-08-04T01:19:01.898Z,20.75
2022-08-04T01:21:56.196Z,20.74
2022-08-04T01:24:41.716Z,20.75
2022-08-04T01:27:32.288Z,20.73
2022-08-04T01:30:02.339Z,20.70
2022-08-04T01:32:39.053Z,20.72
2022-08-04T01:35:15.451Z,20.71
2022-08-04T01:38:00.913Z,20.70
2022-08-04T01:40:28.039Z,20.72
2022-08-04T01:42:55.401Z,20.75
2022-08-04T01:45:24.416Z,20.81
2022-08-04T01:47:53.488Z,20.83
2022-08-04T01:50:21.072Z,20.80
2022-08-04T01:52:54.540Z,20.83
2022-08-04T01:55:21.079Z,20.84
2022-08-04T01:57:50.571Z,20.85
2022-08-04T02:00:20.439Z,20.83
2022-08-04T02:02:47.466Z,20.82
2022-08-04T02:05:21.214Z,20.80
2022-08-04T02:08:24.118Z,20.79
2022-08-04T02:11:16.099Z,20.72
2022-08-04T02:14:01.791Z,20.73
2022-08-04T02:16:52.674Z,20.70
2022-08-04T02:19:52.411Z,20.66
2022-08-04T02:22:22.522Z,20.64
2022-08-04T02:25:12.119Z,20.63
2022-08-04T02:28:16.038Z,20.61
2022-08-04T02:31:08.585Z,20.55
2022-08-04T02:33:39.006Z,20.51
2022-08-04T02:36:09.346Z,20.51
2022-08-04T02:39:04.931Z,20.50
2022-08-04T02:41:32.949Z,20.51
2022-08-04T02:44:01.923Z,20.48
2022-08-04T02:46:30.169Z,20.50
2022-08-04T02:48:57.281Z,20.48
2022-08-04T02:51:33.761Z,20.45
2022-08-04T02:54:03.006Z,20.48
2022-08-04T02:56:31.580Z,20.47
2022-08-04T02:59:02.448Z,20.46
2022-08-04T03:01:29.439Z,20.47
2022-08-04T03:04:34.666Z,20.46
2022-08-04T03:07:27.771Z,20.45
2022-08-04T03:10:31.741Z,20.42
2022-08-04T03:13:36.707Z,20.40
2022-08-04T03:16:36.725Z,20.41
2022-08-04T03:19:10.857Z,20.42
2022-08-04T03:22:15.622Z,20.37
2022-08-04T03:25:17.021Z,20.37
2022-08-04T03:28:27.017Z,20.36
2022-08-04T03:31:09.820Z,20.22
2022-08-04T03:34:03.386Z,20.32
2022-08-04T03:37:03.769Z,20.46
2022-08-04T03:39:54.141Z,20.51
2022-08-04T03:42:48.792Z,20.58
2022-08-04T03:45:49.490Z,20.70
2022-08-04T03:48:44.668Z,20.79
2022-08-04T03:51:54.900Z,20.81
2022-08-04T03:54:45.336Z,20.79
2022-08-04T03:57:26.870Z,20.76
2022-08-04T04:00:19.694Z,20.71
2022-08-04T04:03:28.724Z,20.64
2022-08-04T04:06:07.599Z,20.60
2022-08-04T04:09:06.060Z,20.53
2022-08-04T04:12:08.557Z,20.53
2022-08-04T04:14:48.903Z,20.48
2022-08-04T04:17:52.807Z,20.47
2022-08-04T04:20:54.986Z,20.41
2022-08-04T04:24:01.109Z,20.39
2022-08-04T04:26:56.396Z,20.36
2022-08-04T04:29:50.539Z,20.31
2022-08-04T04:32:44.172Z,20.32
2022-08-04T04:35:15.380Z,20.32
2022-08-04T04:38:01.494Z,20.30
2022-08-04T04:40:56.718Z,20.30
2022-08-04T04:43:50.875Z,20.32
2022-08-04T04:46:38.812Z,20.34
2022-08-04T04:49:38.974Z,20.35
2022-08-04T04:52:21.652Z,20.38
2022-08-04T04:54:48.121Z,20.43
2022-08-04T04:57:53.548Z,20.45
2022-08-04T05:00:12.137Z,20.45
2022-08-04T05:02:47.524Z,20.48
2022-08-04T05:05:28.179Z,20.49
2022-08-04T05:08:43.632Z,20.54
2022-08-04T05:11:38.105Z,20.57
2022-08-04T05:14:35.307Z,20.55
2022-08-04T05:17:03.648Z,20.65
2022-08-04T05:19:46.698Z,20.68
2022-08-04T05:22:22.281Z,20.75
2022-08-04T05:24:52.393Z,20.81
2022-08-04T05:27:29.990Z,20.86
2022-08-04T05:30:03.051Z,20.88
2022-08-04T05:32:37.384Z,20.93
2022-08-04T05:35:37.333Z,20.94
2022-08-04T05:38:18.456Z,21.01
2022-08-04T05:40:46.021Z,21.08
2022-08-04T05:43:14.071Z,21.17
2022-08-04T05:45:42.310Z,21.19
2022-08-04T05:48:09.583Z,21.23
2022-08-04T05:50:37.024Z,21.26
2022-08-04T05:53:05.068Z,21.32
2022-08-04T05:55:57.415Z,21.34
2022-08-04T05:58:20.009Z,21.35
2022-08-04T06:00:52.156Z,21.41
2022-08-04T06:03:21.281Z,21.39
2022-08-04T06:05:49.388Z,21.40
2022-08-04T06:08:16.043Z,21.44
2022-08-04T06:10:46.070Z,21.48
2022-08-04T06:13:48.017Z,21.44
2022-08-04T06:16:06.510Z,21.43
2022-08-04T06:20:01.045Z,21.46
2022-08-04T06:24:11.505Z,21.48
2022-08-04T06:26:38.461Z,21.50
2022-08-04T06:29:10.629Z,21.51
2022-08-04T06:32:30.769Z,21.50
2022-08-04T06:34:35.011Z,21.53
2022-08-04T06:37:02.861Z,21.62
2022-08-04T06:39:32.962Z,21.65
2022-08-04T06:42:21.846Z,21.59
2022-08-04T06:44:51.086Z,21.53
2022-08-04T06:47:22.207Z,21.56
2022-08-04T06:51:25.041Z,21.60
2022-08-04T06:52:39.729Z,21.63
2022-08-04T06:55:07.662Z,21.64
2022-08-04T06:57:35.447Z,21.61
2022-08-04T07:00:11.056Z,21.62
2022-08-04T07:02:43.148Z,21.67
2022-08-04T07:05:10.690Z,21.68
2022-08-04T07:07:56.961Z,21.70
2022-08-04T07:10:24.944Z,21.71
2022-08-04T07:12:53.016Z,21.59
2022-08-04T07:15:21.689Z,21.66
2022-08-04T07:17:49.585Z,21.70
2022-08-04T07:20:33.968Z,21.74
2022-08-04T07:23:06.044Z,21.71
2022-08-04T07:25:59.935Z,21.68
2022-08-04T07:28:23.189Z,21.67
2022-08-04T07:30:50.411Z,21.74
2022-08-04T07:33:18.304Z,21.86
2022-08-04T07:36:05.150Z,21.92
2022-08-04T07:38:48.193Z,22.02
2022-08-04T07:41:40.729Z,21.94
2022-08-04T07:44:08.755Z,22.13
2022-08-04T07:46:38.066Z,22.12
2022-08-04T07:49:05.892Z,22.15
2022-08-04T07:51:35.189Z,22.33
2022-08-04T07:54:05.290Z,22.49
2022-08-04T07:56:36.502Z,22.76
2022-08-04T07:59:04.585Z,22.72
2022-08-04T08:01:31.221Z,22.70
2022-08-04T08:04:00.468Z,22.67
2022-08-04T08:06:33.118Z,22.73
2022-08-04T08:09:02.096Z,22.96
2022-08-04T08:12:37.593Z,23.18
2022-08-04T08:14:25.656Z,23.45
2022-08-04T08:16:52.285Z,23.67
2022-08-04T08:19:18.761Z,23.73
2022-08-04T08:21:59.077Z,23.72
2022-08-04T08:24:31.290Z,23.91
2022-08-04T08:27:00.193Z,24.03
2022-08-04T08:29:29.275Z,24.18
2022-08-04T08:31:59.537Z,24.45
2022-08-04T08:34:31.153Z,24.51
2022-08-04T08:37:12.517Z,24.62
2022-08-04T08:39:46.934Z,24.73
2022-08-04T08:42:38.923Z,24.91
2022-08-04T08:45:43.066Z,24.88
2022-08-04T08:48:45.671Z,25.11
2022-08-04T08:51:28.537Z,25.07
2022-08-04T08:54:30.024Z,25.10
2022-08-04T08:57:33.503Z,25.11
2022-08-04T09:00:20.822Z,25.14
2022-08-04T09:03:31.445Z,25.28
2022-08-04T09:06:15.801Z,25.28
2022-08-04T09:08:54.021Z,25.55
2022-08-04T09:11:23.744Z,25.70
2022-08-04T09:13:56.536Z,26.04
2022-08-04T09:16:55.243Z,26.03
2022-08-04T09:19:53.042Z,26.26
2022-08-04T09:22:29.628Z,26.14
2022-08-04T09:25:07.881Z,26.19
2022-08-04T09:27:56.746Z,26.32
2022-08-04T09:30:31.631Z,26.18
2022-08-04T09:33:44.821Z,26.13
2022-08-04T09:36:25.989Z,26.10
2022-08-04T09:39:16.163Z,26.21
2022-08-04T09:42:14.602Z,25.92
2022-08-04T09:45:19.536Z,26.03
2022-08-04T09:48:00.742Z,26.17
2022-08-04T09:50:41.180Z,26.25
2022-08-04T09:53:25.991Z,25.96
2022-08-04T09:56:06.560Z,26.01
2022-08-04T09:58:50.324Z,26.11
2022-08-04T10:01:38.473Z,25.95
2022-08-04T10:04:09.870Z,25.78
2022-08-04T10:06:50.409Z,25.74
2022-08-04T10:09:43.283Z,25.71
2022-08-04T10:12:29.796Z,25.72
2022-08-04T10:15:15.116Z,25.56
2022-08-04T10:18:03.906Z,25.50
2022-08-04T10:21:11.599Z,25.38
2022-08-04T10:24:03.129Z,25.40
2022-08-04T10:26:58.445Z,25.40
2022-08-04T10:29:30.778Z,25.19
2022-08-04T10:32:04.328Z,25.06
2022-08-04T10:34:36.327Z,25.18
2022-08-04T10:37:20.176Z,25.22
2022-08-04T10:40:37.438Z,25.07
2022-08-04T10:43:22.795Z,24.98
2022-08-04T10:45:58.002Z,24.97
2022-08-04T10:48:35.766Z,25.07
2022-08-04T10:51:29.744Z,25.25
2022-08-04T10:54:00.122Z,25.24
2022-08-04T10:56:38.939Z,25.36
2022-08-04T10:59:26.451Z,25.27
2022-08-04T11:02:03.562Z,25.29
2022-08-04T11:04:44.351Z,25.37
2022-08-04T11:07:12.338Z,25.24
2022-08-04T11:09:42.132Z,25.31
2022-08-04T11:12:21.316Z,25.31
2022-08-04T11:15:20.901Z,25.34
2022-08-04T11:17:53.665Z,25.28
2022-08-04T11:20:42.797Z,25.21
2022-08-04T11:23:13.417Z,25.34
2022-08-04T11:26:12.685Z,25.47
2022-08-04T11:29:04.058Z,25.50
2022-08-04T11:31:35.740Z,25.43
2022-08-04T11:34:18.977Z,25.56
2022-08-04T11:37:17.730Z,25.88
2022-08-04T11:40:00.743Z,26.09
2022-08-04T11:42:30.681Z,26.39
2022-08-04T11:45:11.140Z,26.63
2022-08-04T11:48:00.568Z,26.87
2022-08-04T11:50:45.063Z,27.05
2022-08-04T11:53:19.255Z,27.16
2022-08-04T11:56:06.979Z,26.68
2022-08-04T11:58:35.441Z,26.90
2022-08-04T12:01:42.332Z,27.16
2022-08-04T12:04:37.814Z,27.03
2022-08-04T12:07:30.975Z,26.98
2022-08-04T12:10:41.039Z,26.77
2022-08-04T12:13:20.857Z,26.88
2022-08-04T12:15:53.301Z,26.87
2022-08-04T12:18:40.555Z,26.67
2022-08-04T12:21:36.521Z,26.86
2022-08-04T12:24:08.375Z,26.95
2022-08-04T12:26:43.887Z,26.91
2022-08-04T12:29:15.134Z,26.59
2022-08-04T12:31:49.356Z,26.62
2022-08-04T12:34:37.400Z,26.93
2022-08-04T12:37:56.602Z,26.74
2022-08-04T12:40:31.816Z,27.09
2022-08-04T12:43:08.906Z,27.26
2022-08-04T12:45:36.469Z,27.24
2022-08-04T12:48:06.315Z,27.27
2022-08-04T12:50:33.574Z,27.13
2022-08-04T12:53:02.984Z,27.08
2022-08-04T12:55:33.322Z,26.99
2022-08-04T12:58:02.780Z,27.18
2022-08-04T13:00:40.193Z,27.30
2022-08-04T13:03:11.670Z,27.10
2022-08-04T13:05:40.625Z,26.83
2022-08-04T13:08:09.611Z,26.84
2022-08-04T13:10:46.535Z,26.73
2022-08-04T13:13:19.220Z,26.67
2022-08-04T13:15:57.842Z,26.64
2022-08-04T13:21:50.318Z,26.75
2022-08-04T13:24:21.177Z,26.74
2022-08-04T13:27:03.631Z,26.66
2022-08-04T13:29:59.555Z,26.65
2022-08-04T13:30:24.088Z,26.98
2022-08-04T13:32:28.836Z,26.87
2022-08-04T13:34:57.327Z,27.26
2022-08-04T13:37:30.462Z,27.46
2022-08-04T13:40:00.174Z,27.65
2022-08-04T13:42:28.296Z,27.63
2022-08-04T13:44:58.536Z,27.91
2022-08-04T13:47:38.180Z,27.89
2022-08-04T13:50:29.578Z,27.61
2022-08-04T13:52:58.781Z,27.33
2022-08-04T13:55:36.010Z,27.20
2022-08-04T13:58:08.784Z,27.36
2022-08-04T14:00:46.630Z,27.49
2022-08-04T14:03:53.382Z,27.24
2022-08-04T14:06:48.964Z,27.03
2022-08-04T14:09:20.813Z,27.10
2022-08-04T14:12:08.809Z,27.13
2022-08-04T14:14:51.553Z,26.91
2022-08-04T14:17:23.672Z,27.02
2022-08-04T14:20:00.008Z,27.28
2022-08-04T14:22:26.398Z,27.36
2022-08-04T14:25:05.794Z,27.60
2022-08-04T14:27:44.172Z,27.09
2022-08-04T14:30:25.774Z,27.57
2022-08-04T14:33:56.482Z,27.85
2022-08-04T14:35:59.079Z,27.67
2022-08-04T14:38:41.961Z,27.71
2022-08-04T14:41:08.482Z,27.66
2022-08-04T14:43:42.973Z,27.12
2022-08-04T14:46:10.571Z,27.11
2022-08-04T14:48:41.089Z,27.26
2022-08-04T14:51:16.563Z,27.38
2022-08-04T14:53:52.505Z,26.92
2022-08-04T14:56:44.911Z,26.94
2022-08-04T14:59:09.334Z,27.17
2022-08-04T15:01:38.371Z,27.00
2022-08-04T15:04:06.213Z,27.35
2022-08-04T15:06:34.280Z,27.29
2022-08-04T15:09:07.518Z,27.37
2022-08-04T15:11:43.095Z,27.47
2022-08-04T15:14:10.155Z,27.25
2022-08-04T15:16:56.914Z,27.25
2022-08-04T15:19:23.975Z,27.13
2022-08-04T15:21:51.145Z,27.16
2022-08-04T15:24:17.711Z,26.95
2022-08-04T15:26:52.983Z,27.00
2022-08-04T15:29:27.558Z,26.62
2022-08-04T15:32:05.554Z,26.20
2022-08-04T15:34:46.006Z,26.14
2022-08-04T15:37:17.753Z,26.23
2022-08-04T15:39:51.511Z,25.92
2022-08-04T15:42:35.791Z,26.03
2022-08-04T15:46:32.940Z,26.19
2022-08-04T15:48:13.527Z,26.07
2022-08-04T15:50:55.512Z,25.70
2022-08-04T15:53:22.872Z,25.43
2022-08-04T15:55:50.093Z,25.46
2022-08-04T15:58:20.086Z,25.25
2022-08-04T16:00:55.434Z,25.30
2022-08-04T16:03:54.303Z,25.05
2022-08-04T16:06:20.603Z,24.98
2022-08-04T16:08:57.611Z,24.85
2022-08-04T16:11:30.932Z,24.81
2022-08-04T16:14:00.590Z,24.72
2022-08-04T16:16:51.008Z,24.80
2022-08-04T16:19:35.240Z,24.64
2022-08-04T16:22:04.336Z,24.59
2022-08-04T16:24:41.698Z,24.59
2022-08-04T16:27:09.615Z,24.53
2022-08-04T16:29:44.536Z,24.47
2022-08-04T16:32:13.799Z,24.36
2022-08-04T16:34:56.505Z,24.21
2022-08-04T16:37:38.169Z,24.08
2022-08-04T16:40:37.154Z,23.89
2022-08-04T16:43:07.842Z,23.75
2022-08-04T16:45:43.492Z,23.66
2022-08-04T16:48:11.652Z,23.66
2022-08-04T16:51:05.104Z,23.81
2022-08-04T16:54:04.349Z,23.86
2022-08-04T16:56:34.170Z,23.66
2022-08-04T16:59:09.163Z,23.60
2022-08-04T17:01:36.891Z,23.49
2022-08-04T17:04:05.253Z,23.46
2022-08-04T17:06:42.842Z,23.62
2022-08-04T17:09:14.817Z,23.68
2022-08-04T17:11:43.331Z,23.36
2022-08-04T17:14:10.744Z,23.40
2022-08-04T17:16:42.971Z,23.31
2022-08-04T17:19:23.750Z,23.32
2022-08-04T17:22:17.596Z,23.12
2022-08-04T17:24:44.240Z,23.06
2022-08-04T17:28:09.650Z,23.14
2022-08-04T17:29:57.693Z,23.27
2022-08-04T17:32:24.677Z,23.23
2022-08-04T17:34:54.171Z,23.11
2022-08-04T17:37:38.932Z,22.96
2022-08-04T17:40:14.019Z,22.86
2022-08-04T17:42:41.762Z,22.72
2022-08-04T17:45:49.173Z,22.76
2022-08-04T17:47:56.826Z,22.76
2022-08-04T17:50:27.767Z,22.59
2022-08-04T17:53:11.778Z,22.58
2022-08-04T17:55:41.678Z,22.43
2022-08-04T17:58:21.097Z,22.38
2022-08-04T18:00:51.191Z,22.35
2022-08-04T18:03:29.078Z,22.35
2022-08-04T18:06:02.270Z,22.44
2022-08-04T18:08:45.426Z,22.39
2022-08-04T18:11:22.254Z,22.17
2022-08-04T18:13:57.087Z,22.09
2022-08-04T18:16:24.049Z,22.06
2022-08-04T18:19:14.455Z,22.06
2022-08-04T18:24:56.271Z,22.03
2022-08-04T18:27:24.351Z,21.99
2022-08-04T18:30:38.533Z,22.05
2022-08-04T18:33:04.217Z,21.97
2022-08-04T18:36:31.252Z,21.94
2022-08-04T18:38:22.420Z,21.93
2022-08-04T18:40:53.627Z,21.72
2022-08-04T18:43:28.273Z,21.64
2022-08-04T18:45:58.120Z,21.59
2022-08-04T18:48:35.985Z,21.60
2022-08-04T18:51:10.889Z,21.56
2022-08-04T18:53:55.086Z,21.63
2022-08-04T18:56:31.720Z,21.50
2022-08-04T18:59:04.392Z,21.34
2022-08-04T19:02:09.172Z,21.27
2022-08-04T19:04:34.149Z,21.28
2022-08-04T19:07:28.687Z,21.21
2022-08-04T19:09:54.232Z,21.16
2022-08-04T19:12:27.063Z,21.14
2022-08-04T19:14:58.667Z,21.11
2022-08-04T19:17:52.831Z,21.06
2022-08-04T19:20:15.827Z,21.03
2022-08-04T19:24:11.679Z,21.05
2022-08-04T19:26:02.649Z,21.02
2022-08-04T19:28:29.734Z,20.99
2022-08-04T19:30:58.526Z,21.00
2022-08-04T19:33:25.617Z,20.90
2022-08-04T19:35:57.042Z,20.92
2022-08-04T19:38:23.709Z,21.00
2022-08-04T19:40:52.488Z,20.97
2022-08-04T19:43:20.734Z,20.96
2022-08-04T19:45:50.018Z,20.93
2022-08-04T19:48:19.631Z,20.91
2022-08-04T19:50:47.068Z,20.88
2022-08-04T19:53:19.555Z,20.79
2022-08-04T19:55:49.686Z,20.70
2022-08-04T19:58:17.756Z,20.79
2022-08-04T20:00:44.586Z,20.81
2022-08-04T20:03:20.279Z,20.75
2022-08-04T20:05:53.273Z,20.75
2022-08-04T20:08:23.808Z,20.69
2022-08-04T20:10:51.888Z,20.67
2022-08-04T20:13:19.996Z,20.64
2022-08-04T20:15:55.570Z,20.64
2022-08-04T20:18:35.976Z,20.57
2022-08-04T20:21:18.814Z,20.51
2022-08-04T20:23:48.763Z,20.53
2022-08-04T20:26:16.732Z,20.58
2022-08-04T20:28:45.747Z,20.58
2022-08-04T20:31:18.159Z,20.46
2022-08-04T20:33:53.571Z,20.47
2022-08-04T20:36:21.993Z,20.42
2022-08-04T20:38:52.733Z,20.41
2022-08-04T20:41:20.641Z,20.34
2022-08-04T20:43:49.794Z,20.33
2022-08-04T20:46:28.948Z,20.32
2022-08-04T20:48:56.383Z,20.29
2022-08-04T20:51:25.876Z,20.24
2022-08-04T20:53:58.811Z,20.24
2022-08-04T20:56:30.773Z,20.23
2022-08-04T20:58:59.260Z,20.21
2022-08-04T21:01:27.062Z,20.17
2022-08-04T21:04:28.163Z,20.17
2022-08-04T21:07:05.914Z,20.16
2022-08-04T21:09:38.210Z,20.20
2022-08-04T21:12:10.999Z,20.19
2022-08-04T21:14:59.859Z,20.09
2022-08-04T21:17:59.163Z,20.16
2022-08-04T21:20:13.933Z,20.17
2022-08-04T21:22:40.780Z,20.07
2022-08-04T21:25:14.579Z,20.04
2022-08-04T21:27:43.307Z,20.07
2022-08-04T21:32:56.979Z,19.98
2022-08-04T21:35:36.831Z,20.02
2022-08-04T21:38:13.969Z,19.97
2022-08-04T21:40:54.647Z,19.99
2022-08-04T21:43:23.690Z,20.00
2022-08-04T21:45:54.940Z,19.95
2022-08-04T21:48:22.210Z,19.84
2022-08-04T21:50:50.310Z,19.76
2022-08-04T21:53:19.577Z,19.81
2022-08-04T21:56:04.808Z,19.78
2022-08-04T21:58:33.242Z,19.85
2022-08-04T22:00:59.942Z,19.88
2022-08-04T22:03:53.075Z,19.89
2022-08-04T22:06:17.406Z,19.75
2022-08-04T22:08:49.442Z,19.76
2022-08-04T22:11:27.499Z,19.77
2022-08-04T22:14:14.157Z,19.74
2022-08-04T22:16:40.644Z,19.72
2022-08-04T22:19:08.819Z,19.58
2022-08-04T22:21:39.080Z,19.55
2022-08-04T22:24:13.724Z,19.52
2022-08-04T22:26:41.186Z,19.52
2022-08-04T22:29:14.104Z,19.54
2022-08-04T22:31:53.123Z,19.48
2022-08-04T22:34:23.799Z,19.43
2022-08-04T22:36:50.495Z,19.53
2022-08-04T22:39:17.371Z,19.46
2022-08-04T22:41:48.829Z,19.47
2022-08-04T22:44:33.429Z,19.41
2022-08-04T22:47:00.819Z,19.44
2022-08-04T22:49:31.365Z,19.46
2022-08-04T22:51:59.006Z,19.42
2022-08-04T22:54:26.158Z,19.39
2022-08-04T22:56:56.005Z,19.41
2022-08-04T22:59:23.841Z,19.42
2022-08-04T23:02:01.109Z,19.41
2022-08-04T23:04:32.938Z,19.46
2022-08-04T23:07:00.935Z,19.43
2022-08-04T23:09:50.842Z,19.40
2022-08-04T23:12:27.931Z,19.36
2022-08-04T23:14:58.395Z,19.40
2022-08-04T23:17:27.341Z,19.30
2022-08-04T23:19:55.433Z,19.31
2022-08-04T23:22:37.458Z,19.21
2022-08-04T23:25:16.217Z,19.26
2022-08-04T23:27:51.289Z,19.35
2022-08-04T23:30:20.868Z,19.30
2022-08-04T23:32:48.630Z,19.29
2022-08-04T23:35:15.421Z,19.23
2022-08-04T23:37:56.315Z,19.30
2022-08-04T23:40:33.435Z,19.35
2022-08-04T23:43:17.094Z,19.38
2022-08-04T23:46:06.486Z,19.35
2022-08-04T23:48:33.168Z,19.36
2022-08-04T23:51:19.455Z,19.40
2022-08-04T23:54:03.017Z,19.37
2022-08-04T23:56:32.129Z,19.39
2022-08-04T23:59:00.221Z,19.39
